Aérodrome :
LOGIN :

S'inscrire | Disclaimer

   EN    FR    IT 

 










Légende :    VFR   VFR Marginal   IFR   IFR Intensif   IFR Très Intensif
Visi : 
Plafond : 
>= 8 km
>= 3000ft
5 à 8 km
1000 à 3000 ft
1500m à 5 km
500 à 1000 ft
800 à 1500m
200 à 500 ft
< 800m
< 200 ft
Symboles :   Orages  Brouillard  Fortes neiges  Fortes précipitations  Vent > 20 kt
SIGMETs :   Divers  Orages  Givrage  Turbulence  Onde Orograph.  Cendres Volcan.







- Altitude de l'aérodrome : 11 ft
- Code IATA : SXL


EISG - Sligo

DERNIER METAR :
  • 191300Z 24016KT 4100 FEW011 SCT016 BKN032 03/01 Q1004

METARs EXPIRÉS :
  • 191200Z 25013KT 9999 FEW016 FEW020CB SCT025 04/02 Q1004
  • 191130Z 25017KT 9999 FEW020CB SCT041 04/01 Q1004
  • 191100Z 24017KT 9999 SCT015 FEW020CB 04/01 Q1004
  • 191030Z 24017KT 9999 FEW015 FEW020CB 03/01 Q1004

TAF TAF EISG
Valide du 19 à 12h jusqu'au 19 à 21h UTC


191100Z 1912/1921 25020G30KT 9999 SCT015 SCT030
TEMPO 1912/1921 5000 SHRA BKN014 SCT018CB
TEMPO 1912/1915 26025G40KT
PROB30
TEMPO 1912/1916 3000 TSRAGS BKN009
BECMG 1916/1918 25016KT
Pas de NOTAMs connus pour ce terrain.



MET'MAP, la Météo Aéronautique d'un coup d'oeil ! - Copyright ORBIFLY Décembre 2007 - Disclaimer

ORBIFLY MET'MAP TEAM :

Programmation & Développement : Alexandra Zaïnal
Conception & Développement : Baudouin d'Aumeries
Co-Programmation & Développement : Marc-Olivier Méhu
Soutien technique & logistique : Manuel Goepfert

Contact : metmap@orbifly.com




SOURCES & CREDITS :

   NOAA